sensor_id;sensor_type;location;lat;lon;timestamp;temperature;humidity
11836;DHT22;5977;51.972;7.640;2023-02-28T00:01:07;14.30;59.70
11836;DHT22;5977;51.972;7.640;2023-02-28T00:03:35;14.30;59.70
11836;DHT22;5977;51.972;7.640;2023-02-28T00:06:03;14.30;59.80
11836;DHT22;5977;51.972;7.640;2023-02-28T00:08:33;14.30;59.80
11836;DHT22;5977;51.972;7.640;2023-02-28T00:11:02;14.30;59.80
11836;DHT22;5977;51.972;7.640;2023-02-28T00:13:30;14.20;59.70
11836;DHT22;5977;51.972;7.640;2023-02-28T00:15:59;14.30;59.80
11836;DHT22;5977;51.972;7.640;2023-02-28T00:18:27;14.20;59.80
11836;DHT22;5977;51.972;7.640;2023-02-28T00:20:57;14.30;59.80
11836;DHT22;5977;51.972;7.640;2023-02-28T00:23:26;14.30;59.80
11836;DHT22;5977;51.972;7.640;2023-02-28T00:25:55;14.20;59.90
11836;DHT22;5977;51.972;7.640;2023-02-28T00:28:23;14.20;59.80
11836;DHT22;5977;51.972;7.640;2023-02-28T00:30:51;14.30;59.90
11836;DHT22;5977;51.972;7.640;2023-02-28T00:33:20;14.20;59.90
11836;DHT22;5977;51.972;7.640;2023-02-28T00:35:48;14.20;59.90
11836;DHT22;5977;51.972;7.640;2023-02-28T00:38:16;14.20;60.00
11836;DHT22;5977;51.972;7.640;2023-02-28T00:40:44;14.20;59.90
11836;DHT22;5977;51.972;7.640;2023-02-28T00:43:13;14.20;60.00
11836;DHT22;5977;51.972;7.640;2023-02-28T00:45:44;14.30;60.00
11836;DHT22;5977;51.972;7.640;2023-02-28T00:48:12;14.20;59.90
11836;DHT22;5977;51.972;7.640;2023-02-28T00:50:39;14.30;60.00
11836;DHT22;5977;51.972;7.640;2023-02-28T00:53:07;14.20;60.00
11836;DHT22;5977;51.972;7.640;2023-02-28T00:55:35;14.30;60.00
11836;DHT22;5977;51.972;7.640;2023-02-28T00:58:03;14.20;60.00
11836;DHT22;5977;51.972;7.640;2023-02-28T01:00:32;14.20;60.00
11836;DHT22;5977;51.972;7.640;2023-02-28T01:03:00;14.20;60.00
11836;DHT22;5977;51.972;7.640;2023-02-28T01:05:28;14.20;60.00
11836;DHT22;5977;51.972;7.640;2023-02-28T01:07:56;14.20;60.10
11836;DHT22;5977;51.972;7.640;2023-02-28T01:10:25;14.20;60.10
11836;DHT22;5977;51.972;7.640;2023-02-28T01:12:53;14.20;60.10
11836;DHT22;5977;51.972;7.640;2023-02-28T01:15:21;14.20;60.10
11836;DHT22;5977;51.972;7.640;2023-02-28T01:17:50;14.20;60.20
11836;DHT22;5977;51.972;7.640;2023-02-28T01:20:18;14.20;59.60
11836;DHT22;5977;51.972;7.640;2023-02-28T01:22:46;14.20;60.20
11836;DHT22;5977;51.972;7.640;2023-02-28T01:25:14;14.20;60.20
11836;DHT22;5977;51.972;7.640;2023-02-28T01:27:42;14.20;60.30
11836;DHT22;5977;51.972;7.640;2023-02-28T01:30:10;14.20;60.20
11836;DHT22;5977;51.972;7.640;2023-02-28T01:32:38;14.20;60.20
11836;DHT22;5977;51.972;7.640;2023-02-28T01:35:08;14.20;60.30
11836;DHT22;5977;51.972;7.640;2023-02-28T01:37:37;14.20;60.40
11836;DHT22;5977;51.972;7.640;2023-02-28T01:40:06;14.20;60.50
11836;DHT22;5977;51.972;7.640;2023-02-28T01:42:34;14.20;60.40
11836;DHT22;5977;51.972;7.640;2023-02-28T01:45:07;14.20;60.40
11836;DHT22;5977;51.972;7.640;2023-02-28T01:47:42;14.20;60.40
11836;DHT22;5977;51.972;7.640;2023-02-28T01:50:15;14.20;60.50
11836;DHT22;5977;51.972;7.640;2023-02-28T01:52:45;14.20;60.40
11836;DHT22;5977;51.972;7.640;2023-02-28T01:55:15;14.20;60.40
11836;DHT22;5977;51.972;7.640;2023-02-28T01:57:46;14.10;60.50
11836;DHT22;5977;51.972;7.640;2023-02-28T02:00:18;14.20;60.60
11836;DHT22;5977;51.972;7.640;2023-02-28T02:02:50;14.20;60.60
11836;DHT22;5977;51.972;7.640;2023-02-28T02:05:21;14.20;60.60
11836;DHT22;5977;51.972;7.640;2023-02-28T02:07:51;14.20;60.50
11836;DHT22;5977;51.972;7.640;2023-02-28T02:10:21;14.10;60.60
11836;DHT22;5977;51.972;7.640;2023-02-28T02:13:10;14.10;60.70
11836;DHT22;5977;51.972;7.640;2023-02-28T02:15:44;14.00;60.70
11836;DHT22;5977;51.972;7.640;2023-02-28T02:18:25;14.10;61.00
11836;DHT22;5977;51.972;7.640;2023-02-28T02:27:24;14.10;61.00
11836;DHT22;5977;51.972;7.640;2023-02-28T02:33:45;14.10;60.90
11836;DHT22;5977;51.972;7.640;2023-02-28T02:36:22;14.00;60.90
11836;DHT22;5977;51.972;7.640;2023-02-28T02:38:55;14.00;60.90
11836;DHT22;5977;51.972;7.640;2023-02-28T02:41:30;14.00;60.90
11836;DHT22;5977;51.972;7.640;2023-02-28T02:44:03;14.00;60.90
11836;DHT22;5977;51.972;7.640;2023-02-28T02:46:35;14.00;61.00
11836;DHT22;5977;51.972;7.640;2023-02-28T02:49:08;14.00;61.00
11836;DHT22;5977;51.972;7.640;2023-02-28T02:51:38;14.00;61.00
11836;DHT22;5977;51.972;7.640;2023-02-28T02:54:10;14.00;61.10
11836;DHT22;5977;51.972;7.640;2023-02-28T02:56:44;14.00;61.10
11836;DHT22;5977;51.972;7.640;2023-02-28T02:59:16;14.00;61.10
11836;DHT22;5977;51.972;7.640;2023-02-28T03:01:49;14.00;61.00
11836;DHT22;5977;51.972;7.640;2023-02-28T03:04:20;14.00;61.20
11836;DHT22;5977;51.972;7.640;2023-02-28T03:06:51;14.00;61.10
11836;DHT22;5977;51.972;7.640;2023-02-28T03:09:21;14.00;61.10
11836;DHT22;5977;51.972;7.640;2023-02-28T03:11:51;14.00;61.10
11836;DHT22;5977;51.972;7.640;2023-02-28T03:14:26;14.00;61.10
11836;DHT22;5977;51.972;7.640;2023-02-28T03:17:19;14.00;61.20
11836;DHT22;5977;51.972;7.640;2023-02-28T03:19:55;14.00;61.10
11836;DHT22;5977;51.972;7.640;2023-02-28T03:23:02;14.10;61.20
11836;DHT22;5977;51.972;7.640;2023-02-28T03:25:37;14.10;61.10
11836;DHT22;5977;51.972;7.640;2023-02-28T03:28:12;14.10;61.20
11836;DHT22;5977;51.972;7.640;2023-02-28T03:30:47;14.00;61.10
11836;DHT22;5977;51.972;7.640;2023-02-28T03:33:20;14.00;61.20
11836;DHT22;5977;51.972;7.640;2023-02-28T03:35:52;14.00;61.20
11836;DHT22;5977;51.972;7.640;2023-02-28T03:38:28;14.00;61.40
11836;DHT22;5977;51.972;7.640;2023-02-28T03:41:01;14.00;61.30
11836;DHT22;5977;51.972;7.640;2023-02-28T03:43:34;14.00;61.40
11836;DHT22;5977;51.972;7.640;2023-02-28T03:46:07;14.00;61.40
11836;DHT22;5977;51.972;7.640;2023-02-28T03:48:42;14.00;61.40
11836;DHT22;5977;51.972;7.640;2023-02-28T03:51:14;14.00;61.40
11836;DHT22;5977;51.972;7.640;2023-02-28T03:53:47;14.00;61.50
11836;DHT22;5977;51.972;7.640;2023-02-28T03:56:20;14.00;61.50
11836;DHT22;5977;51.972;7.640;2023-02-28T03:58:53;13.90;61.50
11836;DHT22;5977;51.972;7.640;2023-02-28T04:01:25;14.00;61.50
11836;DHT22;5977;51.972;7.640;2023-02-28T04:03:56;13.90;61.40
11836;DHT22;5977;51.972;7.640;2023-02-28T04:06:24;13.90;61.50
11836;DHT22;5977;51.972;7.640;2023-02-28T04:08:53;13.90;61.50
11836;DHT22;5977;51.972;7.640;2023-02-28T04:11:23;13.90;61.40
11836;DHT22;5977;51.972;7.640;2023-02-28T04:13:55;13.90;61.50
11836;DHT22;5977;51.972;7.640;2023-02-28T04:16:23;13.90;61.40
11836;DHT22;5977;51.972;7.640;2023-02-28T04:19:01;14.00;61.50
11836;DHT22;5977;51.972;7.640;2023-02-28T04:21:32;13.90;61.50
11836;DHT22;5977;51.972;7.640;2023-02-28T04:24:02;13.90;61.50
11836;DHT22;5977;51.972;7.640;2023-02-28T04:26:30;13.90;61.50
11836;DHT22;5977;51.972;7.640;2023-02-28T04:28:59;13.90;61.50
11836;DHT22;5977;51.972;7.640;2023-02-28T04:31:27;13.90;61.60
11836;DHT22;5977;51.972;7.640;2023-02-28T04:33:56;13.90;61.60
11836;DHT22;5977;51.972;7.640;2023-02-28T04:36:24;13.90;61.60
11836;DHT22;5977;51.972;7.640;2023-02-28T04:38:52;13.80;61.60
11836;DHT22;5977;51.972;7.640;2023-02-28T04:41:21;13.80;61.80
11836;DHT22;5977;51.972;7.640;2023-02-28T04:43:51;13.80;61.80
11836;DHT22;5977;51.972;7.640;2023-02-28T04:46:19;14.10;61.50
11836;DHT22;5977;51.972;7.640;2023-02-28T04:48:47;14.30;60.80
11836;DHT22;5977;51.972;7.640;2023-02-28T04:51:17;14.40;60.60
11836;DHT22;5977;51.972;7.640;2023-02-28T04:53:45;14.40;60.30
11836;DHT22;5977;51.972;7.640;2023-02-28T04:56:15;14.40;60.10
11836;DHT22;5977;51.972;7.640;2023-02-28T04:58:45;14.40;59.90
11836;DHT22;5977;51.972;7.640;2023-02-28T05:01:18;14.40;59.90
11836;DHT22;5977;51.972;7.640;2023-02-28T05:03:47;14.40;59.70
11836;DHT22;5977;51.972;7.640;2023-02-28T05:06:15;14.50;59.60
11836;DHT22;5977;51.972;7.640;2023-02-28T05:08:44;14.50;59.50
11836;DHT22;5977;51.972;7.640;2023-02-28T05:11:17;14.50;59.30
11836;DHT22;5977;51.972;7.640;2023-02-28T05:13:47;14.40;59.20
11836;DHT22;5977;51.972;7.640;2023-02-28T05:16:15;14.40;59.10
11836;DHT22;5977;51.972;7.640;2023-02-28T05:18:43;14.40;59.00
11836;DHT22;5977;51.972;7.640;2023-02-28T05:21:25;14.50;58.90
11836;DHT22;5977;51.972;7.640;2023-02-28T05:23:54;14.50;58.80
11836;DHT22;5977;51.972;7.640;2023-02-28T05:26:22;14.50;58.60
11836;DHT22;5977;51.972;7.640;2023-02-28T05:28:52;14.60;58.40
11836;DHT22;5977;51.972;7.640;2023-02-28T05:31:20;14.70;58.30
11836;DHT22;5977;51.972;7.640;2023-02-28T05:33:48;14.70;58.20
11836;DHT22;5977;51.972;7.640;2023-02-28T05:36:16;14.70;58.10
11836;DHT22;5977;51.972;7.640;2023-02-28T05:38:46;14.70;58.10
11836;DHT22;5977;51.972;7.640;2023-02-28T05:41:14;14.70;58.10
11836;DHT22;5977;51.972;7.640;2023-02-28T05:43:42;14.70;58.10
11836;DHT22;5977;51.972;7.640;2023-02-28T05:46:12;14.70;58.00
11836;DHT22;5977;51.972;7.640;2023-02-28T05:48:41;14.80;58.00
11836;DHT22;5977;51.972;7.640;2023-02-28T05:51:09;14.80;58.00
11836;DHT22;5977;51.972;7.640;2023-02-28T05:53:37;14.80;57.90
11836;DHT22;5977;51.972;7.640;2023-02-28T05:56:05;14.80;57.80
11836;DHT22;5977;51.972;7.640;2023-02-28T05:58:33;14.80;57.70
11836;DHT22;5977;51.972;7.640;2023-02-28T06:01:21;14.80;58.30
11836;DHT22;5977;51.972;7.640;2023-02-28T06:03:50;14.90;57.70
11836;DHT22;5977;51.972;7.640;2023-02-28T06:06:17;14.90;57.60
11836;DHT22;5977;51.972;7.640;2023-02-28T06:08:45;14.80;57.60
11836;DHT22;5977;51.972;7.640;2023-02-28T06:11:13;14.80;57.60
11836;DHT22;5977;51.972;7.640;2023-02-28T06:13:41;14.80;57.40
11836;DHT22;5977;51.972;7.640;2023-02-28T06:16:10;14.70;57.30
11836;DHT22;5977;51.972;7.640;2023-02-28T06:18:40;14.80;57.30
11836;DHT22;5977;51.972;7.640;2023-02-28T06:21:07;14.80;57.20
11836;DHT22;5977;51.972;7.640;2023-02-28T06:23:36;14.70;57.10
11836;DHT22;5977;51.972;7.640;2023-02-28T06:26:04;14.70;57.60
11836;DHT22;5977;51.972;7.640;2023-02-28T06:28:32;14.70;56.90
11836;DHT22;5977;51.972;7.640;2023-02-28T06:31:04;14.70;56.90
11836;DHT22;5977;51.972;7.640;2023-02-28T06:33:32;14.70;56.90
11836;DHT22;5977;51.972;7.640;2023-02-28T06:36:02;14.60;56.70
11836;DHT22;5977;51.972;7.640;2023-02-28T06:38:30;14.70;56.90
11836;DHT22;5977;51.972;7.640;2023-02-28T06:40:59;14.70;56.80
11836;DHT22;5977;51.972;7.640;2023-02-28T06:43:28;14.70;56.60
11836;DHT22;5977;51.972;7.640;2023-02-28T06:45:57;14.60;56.60
11836;DHT22;5977;51.972;7.640;2023-02-28T06:48:26;14.70;56.50
11836;DHT22;5977;51.972;7.640;2023-02-28T06:51:03;14.70;56.40
11836;DHT22;5977;51.972;7.640;2023-02-28T06:53:31;14.70;56.30
11836;DHT22;5977;51.972;7.640;2023-02-28T06:55:59;14.70;56.20
11836;DHT22;5977;51.972;7.640;2023-02-28T06:58:32;14.70;56.10
11836;DHT22;5977;51.972;7.640;2023-02-28T07:01:00;14.70;56.10
11836;DHT22;5977;51.972;7.640;2023-02-28T07:03:28;14.50;54.90
11836;DHT22;5977;51.972;7.640;2023-02-28T07:05:59;13.50;54.90
11836;DHT22;5977;51.972;7.640;2023-02-28T07:08:29;13.00;60.00
11836;DHT22;5977;51.972;7.640;2023-02-28T07:10:58;12.60;71.50
11836;DHT22;5977;51.972;7.640;2023-02-28T07:13:26;12.40;72.40
11836;DHT22;5977;51.972;7.640;2023-02-28T07:15:54;12.20;75.00
11836;DHT22;5977;51.972;7.640;2023-02-28T07:18:22;12.10;75.60
11836;DHT22;5977;51.972;7.640;2023-02-28T07:20:50;12.10;76.80
11836;DHT22;5977;51.972;7.640;2023-02-28T07:23:19;12.10;76.80
11836;DHT22;5977;51.972;7.640;2023-02-28T07:25:49;12.00;77.70
11836;DHT22;5977;51.972;7.640;2023-02-28T07:28:17;12.00;76.90
11836;DHT22;5977;51.972;7.640;2023-02-28T07:30:44;12.20;77.90
11836;DHT22;5977;51.972;7.640;2023-02-28T07:33:12;12.40;78.10
11836;DHT22;5977;51.972;7.640;2023-02-28T07:35:40;12.40;78.20
11836;DHT22;5977;51.972;7.640;2023-02-28T07:38:09;12.40;78.50
11836;DHT22;5977;51.972;7.640;2023-02-28T07:40:37;12.40;78.80
11836;DHT22;5977;51.972;7.640;2023-02-28T07:43:06;12.50;78.90
11836;DHT22;5977;51.972;7.640;2023-02-28T07:45:34;12.50;79.20
11836;DHT22;5977;51.972;7.640;2023-02-28T07:48:02;12.60;79.00
11836;DHT22;5977;51.972;7.640;2023-02-28T07:50:30;12.70;78.80
11836;DHT22;5977;51.972;7.640;2023-02-28T07:52:59;13.00;79.30
11836;DHT22;5977;51.972;7.640;2023-02-28T07:55:27;13.50;78.40
11836;DHT22;5977;51.972;7.640;2023-02-28T07:57:54;14.20;76.40
11836;DHT22;5977;51.972;7.640;2023-02-28T08:00:25;14.50;76.10
11836;DHT22;5977;51.972;7.640;2023-02-28T08:02:53;14.70;75.80
11836;DHT22;5977;51.972;7.640;2023-02-28T08:05:21;15.00;75.10
11836;DHT22;5977;51.972;7.640;2023-02-28T08:07:49;14.70;74.00
11836;DHT22;5977;51.972;7.640;2023-02-28T08:10:17;14.60;74.60
11836;DHT22;5977;51.972;7.640;2023-02-28T08:12:45;14.60;74.70
11836;DHT22;5977;51.972;7.640;2023-02-28T08:15:13;14.60;75.30
11836;DHT22;5977;51.972;7.640;2023-02-28T08:17:42;14.70;74.90
11836;DHT22;5977;51.972;7.640;2023-02-28T08:20:11;14.70;74.60
11836;DHT22;5977;51.972;7.640;2023-02-28T08:22:39;14.90;74.60
11836;DHT22;5977;51.972;7.640;2023-02-28T08:25:08;15.10;73.80
11836;DHT22;5977;51.972;7.640;2023-02-28T08:27:36;15.20;74.20
11836;DHT22;5977;51.972;7.640;2023-02-28T08:30:05;15.20;74.20
11836;DHT22;5977;51.972;7.640;2023-02-28T08:32:33;15.40;74.30
11836;DHT22;5977;51.972;7.640;2023-02-28T08:35:03;15.40;74.40
11836;DHT22;5977;51.972;7.640;2023-02-28T08:37:31;15.50;74.70
11836;DHT22;5977;51.972;7.640;2023-02-28T08:39:59;15.60;74.30
11836;DHT22;5977;51.972;7.640;2023-02-28T08:42:27;15.70;74.90
11836;DHT22;5977;51.972;7.640;2023-02-28T08:44:55;15.70;73.90
11836;DHT22;5977;51.972;7.640;2023-02-28T08:47:23;15.80;75.60
11836;DHT22;5977;51.972;7.640;2023-02-28T08:49:51;15.80;73.90
11836;DHT22;5977;51.972;7.640;2023-02-28T08:52:20;15.80;73.50
11836;DHT22;5977;51.972;7.640;2023-02-28T08:54:48;15.60;72.90
11836;DHT22;5977;51.972;7.640;2023-02-28T08:57:16;15.80;74.10
11836;DHT22;5977;51.972;7.640;2023-02-28T08:59:44;15.90;73.10
11836;DHT22;5977;51.972;7.640;2023-02-28T09:02:12;16.00;73.40
11836;DHT22;5977;51.972;7.640;2023-02-28T09:04:41;15.90;73.60
11836;DHT22;5977;51.972;7.640;2023-02-28T09:07:12;15.90;71.30
11836;DHT22;5977;51.972;7.640;2023-02-28T09:09:42;16.00;72.40
11836;DHT22;5977;51.972;7.640;2023-02-28T09:12:20;15.80;70.90
11836;DHT22;5977;51.972;7.640;2023-02-28T09:14:48;15.90;72.10
11836;DHT22;5977;51.972;7.640;2023-02-28T09:17:16;16.00;71.60
11836;DHT22;5977;51.972;7.640;2023-02-28T09:19:44;15.90;71.00
11836;DHT22;5977;51.972;7.640;2023-02-28T09:22:13;16.00;72.10
11836;DHT22;5977;51.972;7.640;2023-02-28T09:24:42;16.00;70.60
11836;DHT22;5977;51.972;7.640;2023-02-28T09:27:11;15.80;70.40
11836;DHT22;5977;51.972;7.640;2023-02-28T09:29:39;15.80;71.50
11836;DHT22;5977;51.972;7.640;2023-02-28T09:32:06;15.90;71.20
11836;DHT22;5977;51.972;7.640;2023-02-28T09:34:34;15.70;71.20
11836;DHT22;5977;51.972;7.640;2023-02-28T09:37:03;15.60;71.50
11836;DHT22;5977;51.972;7.640;2023-02-28T09:39:31;15.20;68.30
11836;DHT22;5977;51.972;7.640;2023-02-28T09:42:02;15.40;72.40
11836;DHT22;5977;51.972;7.640;2023-02-28T09:44:35;15.50;70.80
11836;DHT22;5977;51.972;7.640;2023-02-28T09:47:10;15.50;71.30
11836;DHT22;5977;51.972;7.640;2023-02-28T09:49:42;15.50;70.20
11836;DHT22;5977;51.972;7.640;2023-02-28T09:52:15;15.60;72.80
11836;DHT22;5977;51.972;7.640;2023-02-28T09:54:46;15.40;69.20
11836;DHT22;5977;51.972;7.640;2023-02-28T09:57:19;15.20;71.50
11836;DHT22;5977;51.972;7.640;2023-02-28T09:59:58;15.60;73.60
11836;DHT22;5977;51.972;7.640;2023-02-28T10:02:49;15.50;70.20
11836;DHT22;5977;51.972;7.640;2023-02-28T10:05:21;15.30;67.90
11836;DHT22;5977;51.972;7.640;2023-02-28T10:07:59;15.00;70.50
11836;DHT22;5977;51.972;7.640;2023-02-28T10:10:33;15.20;72.60
11836;DHT22;5977;51.972;7.640;2023-02-28T10:13:06;15.10;72.50
11836;DHT22;5977;51.972;7.640;2023-02-28T10:15:40;15.20;74.70
11836;DHT22;5977;51.972;7.640;2023-02-28T10:18:12;15.40;72.50
11836;DHT22;5977;51.972;7.640;2023-02-28T10:20:42;14.60;68.70
11836;DHT22;5977;51.972;7.640;2023-02-28T10:23:14;14.80;73.50
11836;DHT22;5977;51.972;7.640;2023-02-28T10:25:47;14.60;72.00
11836;DHT22;5977;51.972;7.640;2023-02-28T10:28:18;14.50;70.90
11836;DHT22;5977;51.972;7.640;2023-02-28T10:30:48;14.40;71.00
11836;DHT22;5977;51.972;7.640;2023-02-28T10:33:19;14.30;72.70
11836;DHT22;5977;51.972;7.640;2023-02-28T10:35:49;14.90;77.10
11836;DHT22;5977;51.972;7.640;2023-02-28T10:38:20;15.10;74.30
11836;DHT22;5977;51.972;7.640;2023-02-28T10:40:48;15.10;72.60
11836;DHT22;5977;51.972;7.640;2023-02-28T10:43:23;14.90;72.40
11836;DHT22;5977;51.972;7.640;2023-02-28T10:45:58;14.80;72.00
11836;DHT22;5977;51.972;7.640;2023-02-28T10:48:30;15.10;74.20
11836;DHT22;5977;51.972;7.640;2023-02-28T10:51:00;15.60;57.60
11836;DHT22;5977;51.972;7.640;2023-02-28T10:53:34;15.50;53.30
11836;DHT22;5977;51.972;7.640;2023-02-28T10:56:24;15.10;51.60
11836;DHT22;5977;51.972;7.640;2023-02-28T10:58:56;14.80;53.00
11836;DHT22;5977;51.972;7.640;2023-02-28T11:01:33;14.90;55.00
11836;DHT22;5977;51.972;7.640;2023-02-28T11:04:02;14.50;53.30
11836;DHT22;5977;51.972;7.640;2023-02-28T11:06:32;14.40;57.10
11836;DHT22;5977;51.972;7.640;2023-02-28T11:09:05;14.60;58.20
11836;DHT22;5977;51.972;7.640;2023-02-28T11:11:43;14.40;57.10
11836;DHT22;5977;51.972;7.640;2023-02-28T11:14:20;14.30;56.20
11836;DHT22;5977;51.972;7.640;2023-02-28T11:16:49;14.40;61.50
11836;DHT22;5977;51.972;7.640;2023-02-28T11:19:20;14.70;62.20
11836;DHT22;5977;51.972;7.640;2023-02-28T11:21:53;14.20;60.90
11836;DHT22;5977;51.972;7.640;2023-02-28T11:24:25;14.20;67.10
11836;DHT22;5977;51.972;7.640;2023-02-28T11:26:55;14.20;67.20
11836;DHT22;5977;51.972;7.640;2023-02-28T11:29:27;14.40;60.70
11836;DHT22;5977;51.972;7.640;2023-02-28T11:32:04;14.90;59.30
11836;DHT22;5977;51.972;7.640;2023-02-28T11:34:35;14.70;58.70
11836;DHT22;5977;51.972;7.640;2023-02-28T11:37:05;14.50;55.90
11836;DHT22;5977;51.972;7.640;2023-02-28T11:39:37;14.30;54.10
11836;DHT22;5977;51.972;7.640;2023-02-28T11:42:14;13.80;53.60
11836;DHT22;5977;51.972;7.640;2023-02-28T11:44:58;13.70;54.40
11836;DHT22;5977;51.972;7.640;2023-02-28T11:47:35;14.30;57.90
11836;DHT22;5977;51.972;7.640;2023-02-28T11:50:26;14.00;53.30
11836;DHT22;5977;51.972;7.640;2023-02-28T11:53:01;14.00;56.30
11836;DHT22;5977;51.972;7.640;2023-02-28T11:55:32;13.80;52.20
11836;DHT22;5977;51.972;7.640;2023-02-28T11:58:16;14.00;53.70
11836;DHT22;5977;51.972;7.640;2023-02-28T12:01:24;13.70;53.80
11836;DHT22;5977;51.972;7.640;2023-02-28T12:04:11;14.10;55.20
11836;DHT22;5977;51.972;7.640;2023-02-28T12:06:45;13.50;52.00
11836;DHT22;5977;51.972;7.640;2023-02-28T12:09:38;13.40;53.10
11836;DHT22;5977;51.972;7.640;2023-02-28T12:12:19;13.40;53.90
11836;DHT22;5977;51.972;7.640;2023-02-28T12:17:51;12.80;53.90
11836;DHT22;5977;51.972;7.640;2023-02-28T12:20:26;13.20;54.10
11836;DHT22;5977;51.972;7.640;2023-02-28T12:23:10;13.20;54.10
11836;DHT22;5977;51.972;7.640;2023-02-28T12:25:53;12.90;54.00
11836;DHT22;5977;51.972;7.640;2023-02-28T12:28:26;13.40;56.80
11836;DHT22;5977;51.972;7.640;2023-02-28T12:30:59;13.40;56.20
11836;DHT22;5977;51.972;7.640;2023-02-28T12:33:33;13.60;56.70
11836;DHT22;5977;51.972;7.640;2023-02-28T12:36:07;13.30;55.00
11836;DHT22;5977;51.972;7.640;2023-02-28T12:38:40;13.30;58.30
11836;DHT22;5977;51.972;7.640;2023-02-28T12:41:12;13.30;57.80
11836;DHT22;5977;51.972;7.640;2023-02-28T12:43:45;13.10;56.40
11836;DHT22;5977;51.972;7.640;2023-02-28T12:46:17;13.30;59.70
11836;DHT22;5977;51.972;7.640;2023-02-28T12:48:52;13.10;57.20
11836;DHT22;5977;51.972;7.640;2023-02-28T12:51:22;12.80;56.70
11836;DHT22;5977;51.972;7.640;2023-02-28T12:53:59;13.10;57.10
11836;DHT22;5977;51.972;7.640;2023-02-28T12:56:34;13.10;56.90
11836;DHT22;5977;51.972;7.640;2023-02-28T12:59:14;12.70;57.20
11836;DHT22;5977;51.972;7.640;2023-02-28T13:02:09;13.10;57.70
11836;DHT22;5977;51.972;7.640;2023-02-28T13:05:11;13.00;56.60
11836;DHT22;5977;51.972;7.640;2023-02-28T13:10:49;12.80;56.70
11836;DHT22;5977;51.972;7.640;2023-02-28T13:13:22;13.20;59.40
11836;DHT22;5977;51.972;7.640;2023-02-28T13:15:59;13.00;59.50
11836;DHT22;5977;51.972;7.640;2023-02-28T13:18:30;12.80;57.60
11836;DHT22;5977;51.972;7.640;2023-02-28T13:21:00;13.10;59.50
11836;DHT22;5977;51.972;7.640;2023-02-28T13:23:38;12.80;57.10
11836;DHT22;5977;51.972;7.640;2023-02-28T13:26:07;12.70;57.90
11836;DHT22;5977;51.972;7.640;2023-02-28T13:29:21;12.60;58.20
11836;DHT22;5977;51.972;7.640;2023-02-28T13:38:33;12.80;57.60
11836;DHT22;5977;51.972;7.640;2023-02-28T13:41:40;12.90;58.60
11836;DHT22;5977;51.972;7.640;2023-02-28T13:44:09;12.40;57.00
11836;DHT22;5977;51.972;7.640;2023-02-28T13:49:35;12.80;58.70
11836;DHT22;5977;51.972;7.640;2023-02-28T13:52:12;12.70;60.30
11836;DHT22;5977;51.972;7.640;2023-02-28T13:54:58;13.00;59.80
11836;DHT22;5977;51.972;7.640;2023-02-28T13:57:44;13.40;62.00
11836;DHT22;5977;51.972;7.640;2023-02-28T14:00:23;13.40;57.20
11836;DHT22;5977;51.972;7.640;2023-02-28T14:03:11;12.90;52.60
11836;DHT22;5977;51.972;7.640;2023-02-28T14:05:40;12.20;56.10
11836;DHT22;5977;51.972;7.640;2023-02-28T14:08:13;12.20;56.20
11836;DHT22;5977;51.972;7.640;2023-02-28T14:10:47;12.10;56.40
11836;DHT22;5977;51.972;7.640;2023-02-28T14:13:37;12.40;57.40
11836;DHT22;5977;51.972;7.640;2023-02-28T14:16:13;11.60;53.40
11836;DHT22;5977;51.972;7.640;2023-02-28T14:18:49;10.80;59.10
11836;DHT22;5977;51.972;7.640;2023-02-28T14:21:21;10.70;59.80
11836;DHT22;5977;51.972;7.640;2023-02-28T14:27:05;10.50;63.70
11836;DHT22;5977;51.972;7.640;2023-02-28T14:30:03;10.40;69.80
11836;DHT22;5977;51.972;7.640;2023-02-28T14:32:35;10.10;70.30
11836;DHT22;5977;51.972;7.640;2023-02-28T14:35:16;11.20;74.90
11836;DHT22;5977;51.972;7.640;2023-02-28T14:37:46;12.10;75.30
11836;DHT22;5977;51.972;7.640;2023-02-28T14:40:20;12.20;71.40
11836;DHT22;5977;51.972;7.640;2023-02-28T14:42:57;12.30;73.50
11836;DHT22;5977;51.972;7.640;2023-02-28T14:45:29;12.20;73.40
11836;DHT22;5977;51.972;7.640;2023-02-28T14:47:58;12.40;76.00
11836;DHT22;5977;51.972;7.640;2023-02-28T14:50:29;12.50;73.00
11836;DHT22;5977;51.972;7.640;2023-02-28T14:52:58;12.30;72.50
11836;DHT22;5977;51.972;7.640;2023-02-28T14:55:28;12.10;72.70
11836;DHT22;5977;51.972;7.640;2023-02-28T14:58:01;11.90;74.40
11836;DHT22;5977;51.972;7.640;2023-02-28T15:00:32;12.70;77.60
11836;DHT22;5977;51.972;7.640;2023-02-28T15:03:17;12.60;76.20
11836;DHT22;5977;51.972;7.640;2023-02-28T15:05:51;12.90;79.90
11836;DHT22;5977;51.972;7.640;2023-02-28T15:08:20;13.00;75.70
11836;DHT22;5977;51.972;7.640;2023-02-28T15:10:52;12.70;78.10
11836;DHT22;5977;51.972;7.640;2023-02-28T15:13:23;12.40;77.80
11836;DHT22;5977;51.972;7.640;2023-02-28T15:15:56;12.50;79.00
11836;DHT22;5977;51.972;7.640;2023-02-28T15:18:33;12.70;79.70
11836;DHT22;5977;51.972;7.640;2023-02-28T15:21:09;12.40;79.60
11836;DHT22;5977;51.972;7.640;2023-02-28T15:23:40;12.40;78.70
11836;DHT22;5977;51.972;7.640;2023-02-28T15:26:10;12.50;81.10
11836;DHT22;5977;51.972;7.640;2023-02-28T15:28:41;12.50;79.00
11836;DHT22;5977;51.972;7.640;2023-02-28T15:31:20;12.30;77.20
11836;DHT22;5977;51.972;7.640;2023-02-28T15:33:54;12.30;79.70
11836;DHT22;5977;51.972;7.640;2023-02-28T15:36:25;12.50;80.00
11836;DHT22;5977;51.972;7.640;2023-02-28T15:38:55;12.60;79.00
11836;DHT22;5977;51.972;7.640;2023-02-28T15:41:38;12.30;78.40
11836;DHT22;5977;51.972;7.640;2023-02-28T15:44:23;12.60;79.60
11836;DHT22;5977;51.972;7.640;2023-02-28T15:46:56;12.50;79.20
11836;DHT22;5977;51.972;7.640;2023-02-28T15:49:25;12.50;77.60
11836;DHT22;5977;51.972;7.640;2023-02-28T15:51:55;12.50;79.30
11836;DHT22;5977;51.972;7.640;2023-02-28T15:54:28;12.50;79.70
11836;DHT22;5977;51.972;7.640;2023-02-28T15:57:00;12.60;80.30
11836;DHT22;5977;51.972;7.640;2023-02-28T15:59:31;12.80;79.80
11836;DHT22;5977;51.972;7.640;2023-02-28T16:02:11;12.60;76.70
11836;DHT22;5977;51.972;7.640;2023-02-28T16:04:56;12.60;78.40
11836;DHT22;5977;51.972;7.640;2023-02-28T16:07:24;12.60;77.60
11836;DHT22;5977;51.972;7.640;2023-02-28T16:09:52;12.70;79.20
11836;DHT22;5977;51.972;7.640;2023-02-28T16:12:21;12.80;77.80
11836;DHT22;5977;51.972;7.640;2023-02-28T16:14:54;12.90;79.10
11836;DHT22;5977;51.972;7.640;2023-02-28T16:17:25;12.50;78.50
11836;DHT22;5977;51.972;7.640;2023-02-28T16:19:54;12.40;78.10
11836;DHT22;5977;51.972;7.640;2023-02-28T16:22:22;12.40;78.20
11836;DHT22;5977;51.972;7.640;2023-02-28T16:24:50;12.70;81.00
11836;DHT22;5977;51.972;7.640;2023-02-28T16:27:21;13.00;80.60
11836;DHT22;5977;51.972;7.640;2023-02-28T16:29:51;12.70;76.40
11836;DHT22;5977;51.972;7.640;2023-02-28T16:32:20;12.60;77.30
11836;DHT22;5977;51.972;7.640;2023-02-28T16:34:48;12.70;79.70
11836;DHT22;5977;51.972;7.640;2023-02-28T16:37:17;13.00;80.10
11836;DHT22;5977;51.972;7.640;2023-02-28T16:39:45;13.00;78.50
11836;DHT22;5977;51.972;7.640;2023-02-28T16:42:20;13.10;79.90
11836;DHT22;5977;51.972;7.640;2023-02-28T16:44:49;13.30;78.60